Richards, Texas
Current Conditions -  °F | °C
As of 12:53 AM on Friday 28 Nov 2014 (Local Time) from KUTS Reporting Station
Clear Clear  
Wind Chill: 50°   Ceiling: Unl
Heat Index: 50°   Visibility: 10mi
Dew Point: 33°   Wind: 3mph
Humidity: 52%   Direction: 130°SE
Pressure: 30.38"   Gusts: NA
Location:  30.54°N, 95.84°W
Report Text: KUTS 280653Z AUTO 13003KT 10SM CLR 10/01 A3038 RMK AO2 SLP285 T01000006
Loading
Personal Weather Stations






























Interactive Weather Map New forecast layout! Learn more

10-Day Weather Forecast

Advertisements
Track Severe Weather on mobile